Columbus, IN (47201)

1:02 AM EDT on September 29, 2016 (GMT -0400)
Jackson St. | | Change Station

Elev 627 ft 39.21 °N, 85.92 °W | Updated 13 seconds ago

Scattered Clouds
Scattered Clouds
53.4 °F
Feels Like 53.4 °F
N
1.0
Wind Variable Wind from NW
Gusts 4.0 mph

Today
High -- | Low -- °F
--% Chance of Precip.
Yesterday
High -- | Low -- °F
Precip. -- in
Pressure 29.96 in
Visibility 10.0 miles
Clouds Few 2400 ft
Scattered Clouds 9000 ft
Dew Point 51 °F
Humidity 92%
Rainfall 0.00 in
Snow Depth Not available.
7:38 AM 7:28 PM
Waning Crescent, 3% visible
METAR KGEZ 290453Z AUTO 31004KT 10SM FEW024 SCT090 12/10 A2997 RMK AO2 SLP146 T01220100 401830122
Pressure 29.96 in
Visibility 10.0 miles
Clouds Few 2400 ft
Scattered Clouds 9000 ft
Dew Point 51 °F
Humidity 92%
Rainfall 0.00 in
Snow Depth Not available.
7:38 AM 7:28 PM
Waning Crescent, 3% visible
METAR KGEZ 290453Z AUTO 31004KT 10SM FEW024 SCT090 12/10 A2997 RMK AO2 SLP146 T01220100 401830122

10-Day Weather Forecast

Almanac

Astronomy

Sep. 29, 2016 Rise Set
Actual Time
Civil Twilight
Nautical Twilight
Astronomical Twilight
Moon
Length of Visible Light
Length of Day
Tomorrow will be .
, % of the Moon is Illuminated

Today's Extremes

State Highs State Lows

Community

WunderPhotos

Upload Photos

1,942,444 photos uploaded!

WunderBlog® & News

Nearby

Air Quality

  Air Quality AQ Index Pollutant
Not available.

Snow Depth

Station Depth Elevation

Earthquake Activity

City Distance Mag. Time & Date
Minimum magnitude displayed is 2.5.

Coastal Water Temperatures

Place Temperature

Stations

Nearby Weather Stations

Station Location Temp. Windchill Dew Point Humidity Wind Precip. Elev Updated Type
                   

Watches & Warnings

There are currently no watches in effect.